sensor_id;sensor_type;location;lat;lon;timestamp;temperature;humidity
1948;DHT22;974;52.400;9.818;2023-03-16T00:01:10;2.30;99.90
1948;DHT22;974;52.400;9.818;2023-03-16T00:03:36;2.30;99.90
1948;DHT22;974;52.400;9.818;2023-03-16T00:06:02;2.30;99.90
1948;DHT22;974;52.400;9.818;2023-03-16T00:08:28;2.20;99.90
1948;DHT22;974;52.400;9.818;2023-03-16T00:10:53;2.20;99.90
1948;DHT22;974;52.400;9.818;2023-03-16T00:13:23;2.10;99.90
1948;DHT22;974;52.400;9.818;2023-03-16T00:15:57;2.10;99.90
1948;DHT22;974;52.400;9.818;2023-03-16T00:18:25;2.10;99.90
1948;DHT22;974;52.400;9.818;2023-03-16T00:21:00;2.10;99.90
1948;DHT22;974;52.400;9.818;2023-03-16T00:23:27;2.10;99.90
1948;DHT22;974;52.400;9.818;2023-03-16T00:25:57;2.10;99.90
1948;DHT22;974;52.400;9.818;2023-03-16T00:28:23;2.10;99.90
1948;DHT22;974;52.400;9.818;2023-03-16T00:30:49;2.20;99.90
1948;DHT22;974;52.400;9.818;2023-03-16T00:33:15;2.10;99.90
1948;DHT22;974;52.400;9.818;2023-03-16T00:35:45;2.20;99.90
1948;DHT22;974;52.400;9.818;2023-03-16T00:38:18;2.10;99.90
1948;DHT22;974;52.400;9.818;2023-03-16T00:40:45;2.20;99.90
1948;DHT22;974;52.400;9.818;2023-03-16T00:43:11;2.20;99.90
1948;DHT22;974;52.400;9.818;2023-03-16T00:45:37;2.20;99.90
1948;DHT22;974;52.400;9.818;2023-03-16T00:48:03;2.20;99.90
1948;DHT22;974;52.400;9.818;2023-03-16T00:50:28;2.30;99.90
1948;DHT22;974;52.400;9.818;2023-03-16T00:52:54;2.30;99.90
1948;DHT22;974;52.400;9.818;2023-03-16T00:55:20;2.30;99.90
1948;DHT22;974;52.400;9.818;2023-03-16T00:57:45;2.30;99.90
1948;DHT22;974;52.400;9.818;2023-03-16T01:00:12;2.30;99.90
1948;DHT22;974;52.400;9.818;2023-03-16T01:02:42;2.30;99.90
1948;DHT22;974;52.400;9.818;2023-03-16T01:05:10;2.40;99.90
1948;DHT22;974;52.400;9.818;2023-03-16T01:07:40;2.40;99.90
1948;DHT22;974;52.400;9.818;2023-03-16T01:10:06;2.40;99.90
1948;DHT22;974;52.400;9.818;2023-03-16T01:12:32;2.40;99.90
1948;DHT22;974;52.400;9.818;2023-03-16T01:14:58;2.40;99.90
1948;DHT22;974;52.400;9.818;2023-03-16T01:17:23;2.30;99.90
1948;DHT22;974;52.400;9.818;2023-03-16T01:19:49;2.30;99.90
1948;DHT22;974;52.400;9.818;2023-03-16T01:22:16;2.30;99.90
1948;DHT22;974;52.400;9.818;2023-03-16T01:24:42;2.30;99.90
1948;DHT22;974;52.400;9.818;2023-03-16T01:27:09;2.30;99.90
1948;DHT22;974;52.400;9.818;2023-03-16T01:29:35;2.30;99.90
1948;DHT22;974;52.400;9.818;2023-03-16T01:32:01;2.30;99.90
1948;DHT22;974;52.400;9.818;2023-03-16T01:34:28;2.30;99.90
1948;DHT22;974;52.400;9.818;2023-03-16T01:36:54;2.30;99.90
1948;DHT22;974;52.400;9.818;2023-03-16T01:39:19;2.20;99.90
1948;DHT22;974;52.400;9.818;2023-03-16T01:41:46;2.20;99.90
1948;DHT22;974;52.400;9.818;2023-03-16T01:44:19;2.20;99.90
1948;DHT22;974;52.400;9.818;2023-03-16T01:46:46;2.20;99.90
1948;DHT22;974;52.400;9.818;2023-03-16T01:49:19;2.20;99.90
1948;DHT22;974;52.400;9.818;2023-03-16T01:51:57;2.10;99.90
1948;DHT22;974;52.400;9.818;2023-03-16T01:54:31;2.10;99.90
1948;DHT22;974;52.400;9.818;2023-03-16T01:57:14;2.20;99.90
1948;DHT22;974;52.400;9.818;2023-03-16T01:59:47;2.10;99.90
1948;DHT22;974;52.400;9.818;2023-03-16T02:02:19;2.10;99.90
1948;DHT22;974;52.400;9.818;2023-03-16T02:05:04;2.10;99.90
1948;DHT22;974;52.400;9.818;2023-03-16T02:07:35;2.10;99.90
1948;DHT22;974;52.400;9.818;2023-03-16T02:10:03;2.10;99.90
1948;DHT22;974;52.400;9.818;2023-03-16T02:12:29;2.10;99.90
1948;DHT22;974;52.400;9.818;2023-03-16T02:14:55;2.10;99.90
1948;DHT22;974;52.400;9.818;2023-03-16T02:17:23;2.10;99.90
1948;DHT22;974;52.400;9.818;2023-03-16T02:22:49;2.10;99.90
1948;DHT22;974;52.400;9.818;2023-03-16T02:25:19;2.10;99.90
1948;DHT22;974;52.400;9.818;2023-03-16T02:30:18;2.00;99.90
1948;DHT22;974;52.400;9.818;2023-03-16T02:32:46;2.00;99.90
1948;DHT22;974;52.400;9.818;2023-03-16T02:35:13;1.90;99.90
1948;DHT22;974;52.400;9.818;2023-03-16T02:37:39;1.90;99.90
1948;DHT22;974;52.400;9.818;2023-03-16T02:40:33;1.90;99.90
1948;DHT22;974;52.400;9.818;2023-03-16T02:43:05;1.90;99.90
1948;DHT22;974;52.400;9.818;2023-03-16T02:45:37;1.90;99.90
1948;DHT22;974;52.400;9.818;2023-03-16T02:48:06;1.90;99.90
1948;DHT22;974;52.400;9.818;2023-03-16T02:50:33;1.80;99.90
1948;DHT22;974;52.400;9.818;2023-03-16T02:52:59;1.70;99.90
1948;DHT22;974;52.400;9.818;2023-03-16T02:55:24;1.70;99.90
1948;DHT22;974;52.400;9.818;2023-03-16T02:57:50;1.60;99.90
1948;DHT22;974;52.400;9.818;2023-03-16T03:00:17;1.50;99.90
1948;DHT22;974;52.400;9.818;2023-03-16T03:02:44;1.50;99.90
1948;DHT22;974;52.400;9.818;2023-03-16T03:05:10;1.50;99.90
1948;DHT22;974;52.400;9.818;2023-03-16T03:07:36;1.50;99.90
1948;DHT22;974;52.400;9.818;2023-03-16T03:10:01;1.40;99.90
1948;DHT22;974;52.400;9.818;2023-03-16T03:12:27;1.30;99.90
1948;DHT22;974;52.400;9.818;2023-03-16T03:14:52;1.20;99.90
1948;DHT22;974;52.400;9.818;2023-03-16T03:17:18;1.20;99.90
1948;DHT22;974;52.400;9.818;2023-03-16T03:19:44;1.00;99.90
1948;DHT22;974;52.400;9.818;2023-03-16T03:22:09;0.90;99.90
1948;DHT22;974;52.400;9.818;2023-03-16T03:24:35;0.80;99.90
1948;DHT22;974;52.400;9.818;2023-03-16T03:27:00;0.80;99.90
1948;DHT22;974;52.400;9.818;2023-03-16T03:29:33;0.70;99.90
1948;DHT22;974;52.400;9.818;2023-03-16T03:32:00;0.70;99.90
1948;DHT22;974;52.400;9.818;2023-03-16T03:34:27;0.70;99.90
1948;DHT22;974;52.400;9.818;2023-03-16T03:36:53;0.70;99.90
1948;DHT22;974;52.400;9.818;2023-03-16T03:39:18;0.60;99.90
1948;DHT22;974;52.400;9.818;2023-03-16T03:41:44;0.50;99.90
1948;DHT22;974;52.400;9.818;2023-03-16T03:44:09;0.50;99.90
1948;DHT22;974;52.400;9.818;2023-03-16T03:46:35;0.40;99.90
1948;DHT22;974;52.400;9.818;2023-03-16T03:49:00;0.50;99.90
1948;DHT22;974;52.400;9.818;2023-03-16T03:51:29;0.40;99.90
1948;DHT22;974;52.400;9.818;2023-03-16T03:53:56;0.30;99.90
1948;DHT22;974;52.400;9.818;2023-03-16T03:56:21;0.30;99.90
1948;DHT22;974;52.400;9.818;2023-03-16T03:58:47;0.30;99.90
1948;DHT22;974;52.400;9.818;2023-03-16T04:01:12;0.20;99.90
1948;DHT22;974;52.400;9.818;2023-03-16T04:03:37;0.20;99.90
1948;DHT22;974;52.400;9.818;2023-03-16T04:06:03;0.20;99.90
1948;DHT22;974;52.400;9.818;2023-03-16T04:08:31;0.20;99.90
1948;DHT22;974;52.400;9.818;2023-03-16T04:10:57;0.20;99.90
1948;DHT22;974;52.400;9.818;2023-03-16T04:13:22;0.20;99.90
1948;DHT22;974;52.400;9.818;2023-03-16T04:15:48;0.10;99.90
1948;DHT22;974;52.400;9.818;2023-03-16T04:18:13;0.10;99.90
1948;DHT22;974;52.400;9.818;2023-03-16T04:20:39;0.10;99.90
1948;DHT22;974;52.400;9.818;2023-03-16T04:23:05;0.20;99.90
1948;DHT22;974;52.400;9.818;2023-03-16T04:25:30;0.10;99.90
1948;DHT22;974;52.400;9.818;2023-03-16T04:27:56;0.10;99.90
1948;DHT22;974;52.400;9.818;2023-03-16T04:30:22;0.10;99.90
1948;DHT22;974;52.400;9.818;2023-03-16T04:32:48;0.00;99.90
1948;DHT22;974;52.400;9.818;2023-03-16T04:35:13;0.00;99.90
1948;DHT22;974;52.400;9.818;2023-03-16T04:37:40;0.00;99.90
1948;DHT22;974;52.400;9.818;2023-03-16T04:40:06;0.00;99.90
1948;DHT22;974;52.400;9.818;2023-03-16T04:42:40;0.00;99.90
1948;DHT22;974;52.400;9.818;2023-03-16T04:45:06;0.20;99.90
1948;DHT22;974;52.400;9.818;2023-03-16T04:47:33;-0.10;99.90
1948;DHT22;974;52.400;9.818;2023-03-16T04:50:00;-0.10;99.90
1948;DHT22;974;52.400;9.818;2023-03-16T04:52:27;-0.10;99.90
1948;DHT22;974;52.400;9.818;2023-03-16T04:54:54;-0.10;99.90
1948;DHT22;974;52.400;9.818;2023-03-16T04:57:19;-0.10;99.90
1948;DHT22;974;52.400;9.818;2023-03-16T04:59:45;-0.20;99.90
1948;DHT22;974;52.400;9.818;2023-03-16T05:02:10;-0.20;99.90
1948;DHT22;974;52.400;9.818;2023-03-16T05:04:36;-0.20;99.90
1948;DHT22;974;52.400;9.818;2023-03-16T05:07:02;-0.10;99.90
1948;DHT22;974;52.400;9.818;2023-03-16T05:09:27;-0.10;99.90
1948;DHT22;974;52.400;9.818;2023-03-16T05:11:52;0.00;99.90
1948;DHT22;974;52.400;9.818;2023-03-16T05:14:18;0.10;99.90
1948;DHT22;974;52.400;9.818;2023-03-16T05:16:43;0.10;99.90
1948;DHT22;974;52.400;9.818;2023-03-16T05:19:09;0.30;99.90
1948;DHT22;974;52.400;9.818;2023-03-16T05:21:34;0.30;99.90
1948;DHT22;974;52.400;9.818;2023-03-16T05:24:05;0.30;99.90
1948;DHT22;974;52.400;9.818;2023-03-16T05:26:31;0.50;99.90
1948;DHT22;974;52.400;9.818;2023-03-16T05:28:58;0.50;99.90
1948;DHT22;974;52.400;9.818;2023-03-16T05:31:23;0.60;99.90
1948;DHT22;974;52.400;9.818;2023-03-16T05:33:52;0.70;99.90
1948;DHT22;974;52.400;9.818;2023-03-16T05:36:19;0.70;99.90
1948;DHT22;974;52.400;9.818;2023-03-16T05:38:44;0.70;99.90
1948;DHT22;974;52.400;9.818;2023-03-16T05:41:10;0.80;99.90
1948;DHT22;974;52.400;9.818;2023-03-16T05:43:36;0.80;99.90
1948;DHT22;974;52.400;9.818;2023-03-16T05:46:01;0.80;99.90
1948;DHT22;974;52.400;9.818;2023-03-16T05:48:28;0.90;99.90
1948;DHT22;974;52.400;9.818;2023-03-16T05:50:53;0.90;99.90
1948;DHT22;974;52.400;9.818;2023-03-16T05:53:19;0.90;99.90
1948;DHT22;974;52.400;9.818;2023-03-16T05:55:50;0.90;99.90
1948;DHT22;974;52.400;9.818;2023-03-16T05:58:16;0.90;99.90
1948;DHT22;974;52.400;9.818;2023-03-16T06:00:42;1.00;99.90
1948;DHT22;974;52.400;9.818;2023-03-16T06:03:07;0.80;99.90
1948;DHT22;974;52.400;9.818;2023-03-16T06:05:33;0.80;99.90
1948;DHT22;974;52.400;9.818;2023-03-16T06:07:58;0.80;99.90
1948;DHT22;974;52.400;9.818;2023-03-16T06:10:24;0.90;99.90
1948;DHT22;974;52.400;9.818;2023-03-16T06:12:51;1.00;99.90
1948;DHT22;974;52.400;9.818;2023-03-16T06:15:16;1.10;99.90
1948;DHT22;974;52.400;9.818;2023-03-16T06:17:42;1.10;99.90
1948;DHT22;974;52.400;9.818;2023-03-16T06:20:11;1.20;99.90
1948;DHT22;974;52.400;9.818;2023-03-16T06:22:41;1.30;99.90
1948;DHT22;974;52.400;9.818;2023-03-16T06:25:08;1.30;99.90
1948;DHT22;974;52.400;9.818;2023-03-16T06:27:35;1.30;99.90
1948;DHT22;974;52.400;9.818;2023-03-16T06:30:00;1.40;99.90
1948;DHT22;974;52.400;9.818;2023-03-16T06:32:26;1.40;99.90
1948;DHT22;974;52.400;9.818;2023-03-16T06:34:51;1.50;99.90
1948;DHT22;974;52.400;9.818;2023-03-16T06:37:17;1.60;99.90
1948;DHT22;974;52.400;9.818;2023-03-16T06:39:43;1.60;99.90
1948;DHT22;974;52.400;9.818;2023-03-16T06:42:09;1.70;99.90
1948;DHT22;974;52.400;9.818;2023-03-16T06:44:35;1.70;99.90
1948;DHT22;974;52.400;9.818;2023-03-16T06:47:00;1.70;99.90
1948;DHT22;974;52.400;9.818;2023-03-16T06:49:26;1.80;99.90
1948;DHT22;974;52.400;9.818;2023-03-16T06:51:51;1.80;99.90
1948;DHT22;974;52.400;9.818;2023-03-16T06:54:17;1.80;99.90
1948;DHT22;974;52.400;9.818;2023-03-16T06:56:42;1.90;99.90
1948;DHT22;974;52.400;9.818;2023-03-16T06:59:08;2.00;99.90
1948;DHT22;974;52.400;9.818;2023-03-16T07:01:33;2.00;99.90
1948;DHT22;974;52.400;9.818;2023-03-16T07:03:59;2.10;99.90
1948;DHT22;974;52.400;9.818;2023-03-16T07:06:24;2.10;99.90
1948;DHT22;974;52.400;9.818;2023-03-16T07:08:50;2.10;99.90
1948;DHT22;974;52.400;9.818;2023-03-16T07:11:16;2.20;99.90
1948;DHT22;974;52.400;9.818;2023-03-16T07:13:41;2.30;99.90
1948;DHT22;974;52.400;9.818;2023-03-16T07:16:07;2.40;99.90
1948;DHT22;974;52.400;9.818;2023-03-16T07:18:33;2.40;99.90
1948;DHT22;974;52.400;9.818;2023-03-16T07:20:58;2.40;99.90
1948;DHT22;974;52.400;9.818;2023-03-16T07:23:24;2.40;99.90
1948;DHT22;974;52.400;9.818;2023-03-16T07:25:50;2.40;99.90
1948;DHT22;974;52.400;9.818;2023-03-16T07:28:17;2.50;99.90
1948;DHT22;974;52.400;9.818;2023-03-16T07:30:44;2.60;99.90
1948;DHT22;974;52.400;9.818;2023-03-16T07:33:10;2.70;99.90
1948;DHT22;974;52.400;9.818;2023-03-16T07:35:36;2.70;99.90
1948;DHT22;974;52.400;9.818;2023-03-16T07:38:02;2.90;99.90
1948;DHT22;974;52.400;9.818;2023-03-16T07:40:27;2.90;99.90
1948;DHT22;974;52.400;9.818;2023-03-16T07:42:53;2.90;99.90
1948;DHT22;974;52.400;9.818;2023-03-16T07:45:18;3.00;99.90
1948;DHT22;974;52.400;9.818;2023-03-16T07:47:44;3.10;99.90
1948;DHT22;974;52.400;9.818;2023-03-16T07:50:10;3.20;99.90
1948;DHT22;974;52.400;9.818;2023-03-16T07:52:36;3.30;99.90
1948;DHT22;974;52.400;9.818;2023-03-16T07:55:02;3.50;99.90
1948;DHT22;974;52.400;9.818;2023-03-16T07:57:28;3.60;99.90
1948;DHT22;974;52.400;9.818;2023-03-16T07:59:53;3.70;99.90
1948;DHT22;974;52.400;9.818;2023-03-16T08:02:19;3.70;99.90
1948;DHT22;974;52.400;9.818;2023-03-16T08:04:46;3.80;99.90
1948;DHT22;974;52.400;9.818;2023-03-16T08:07:12;3.80;99.90
1948;DHT22;974;52.400;9.818;2023-03-16T08:09:39;3.80;99.90
1948;DHT22;974;52.400;9.818;2023-03-16T08:12:06;3.90;99.90
1948;DHT22;974;52.400;9.818;2023-03-16T08:14:32;4.00;99.90
1948;DHT22;974;52.400;9.818;2023-03-16T08:17:01;4.10;99.90
1948;DHT22;974;52.400;9.818;2023-03-16T08:19:27;4.20;99.90
1948;DHT22;974;52.400;9.818;2023-03-16T08:21:52;4.30;99.90
1948;DHT22;974;52.400;9.818;2023-03-16T08:24:18;4.40;99.90
1948;DHT22;974;52.400;9.818;2023-03-16T08:26:44;4.50;99.90
1948;DHT22;974;52.400;9.818;2023-03-16T08:29:09;4.60;99.90
1948;DHT22;974;52.400;9.818;2023-03-16T08:31:35;4.60;99.90
1948;DHT22;974;52.400;9.818;2023-03-16T08:34:01;4.60;99.90
1948;DHT22;974;52.400;9.818;2023-03-16T08:36:27;4.60;99.90
1948;DHT22;974;52.400;9.818;2023-03-16T08:38:54;4.70;99.90
1948;DHT22;974;52.400;9.818;2023-03-16T08:41:20;4.70;99.90
1948;DHT22;974;52.400;9.818;2023-03-16T08:43:46;4.80;99.90
1948;DHT22;974;52.400;9.818;2023-03-16T08:46:12;4.90;99.90
1948;DHT22;974;52.400;9.818;2023-03-16T08:48:39;5.00;99.90
1948;DHT22;974;52.400;9.818;2023-03-16T08:51:06;5.10;99.90
1948;DHT22;974;52.400;9.818;2023-03-16T08:53:32;5.10;99.90
1948;DHT22;974;52.400;9.818;2023-03-16T08:56:02;5.20;99.90
1948;DHT22;974;52.400;9.818;2023-03-16T08:58:30;5.30;99.90
1948;DHT22;974;52.400;9.818;2023-03-16T09:00:57;5.30;99.90
1948;DHT22;974;52.400;9.818;2023-03-16T09:03:23;5.30;99.90
1948;DHT22;974;52.400;9.818;2023-03-16T09:05:49;5.40;99.90
1948;DHT22;974;52.400;9.818;2023-03-16T09:08:15;5.40;99.90
1948;DHT22;974;52.400;9.818;2023-03-16T09:10:42;5.40;99.90
1948;DHT22;974;52.400;9.818;2023-03-16T09:13:07;5.50;99.90
1948;DHT22;974;52.400;9.818;2023-03-16T09:15:33;5.50;99.90
1948;DHT22;974;52.400;9.818;2023-03-16T09:17:59;5.60;99.90
1948;DHT22;974;52.400;9.818;2023-03-16T09:20:28;5.60;99.90
1948;DHT22;974;52.400;9.818;2023-03-16T09:22:54;5.70;99.90
1948;DHT22;974;52.400;9.818;2023-03-16T09:25:20;5.80;99.90
1948;DHT22;974;52.400;9.818;2023-03-16T09:27:45;5.80;99.90
1948;DHT22;974;52.400;9.818;2023-03-16T09:30:13;5.90;99.90
1948;DHT22;974;52.400;9.818;2023-03-16T09:32:38;6.00;99.90
1948;DHT22;974;52.400;9.818;2023-03-16T09:35:05;6.10;99.90
1948;DHT22;974;52.400;9.818;2023-03-16T09:37:32;6.10;99.90
1948;DHT22;974;52.400;9.818;2023-03-16T09:39:58;6.30;99.90
1948;DHT22;974;52.400;9.818;2023-03-16T09:42:34;6.30;99.90
1948;DHT22;974;52.400;9.818;2023-03-16T09:45:14;6.40;99.90
1948;DHT22;974;52.400;9.818;2023-03-16T09:47:45;6.50;99.90
1948;DHT22;974;52.400;9.818;2023-03-16T09:50:26;6.50;99.90
1948;DHT22;974;52.400;9.818;2023-03-16T09:53:23;6.60;99.90
1948;DHT22;974;52.400;9.818;2023-03-16T09:55:58;6.70;99.90
1948;DHT22;974;52.400;9.818;2023-03-16T09:58:24;6.80;99.90
1948;DHT22;974;52.400;9.818;2023-03-16T10:00:54;6.90;99.90
1948;DHT22;974;52.400;9.818;2023-03-16T10:03:35;7.00;99.90
1948;DHT22;974;52.400;9.818;2023-03-16T10:06:08;7.10;99.90
1948;DHT22;974;52.400;9.818;2023-03-16T10:08:42;7.10;99.90
1948;DHT22;974;52.400;9.818;2023-03-16T10:11:31;7.20;99.90
1948;DHT22;974;52.400;9.818;2023-03-16T10:17:15;7.30;99.90
1948;DHT22;974;52.400;9.818;2023-03-16T10:19:53;7.40;99.90
1948;DHT22;974;52.400;9.818;2023-03-16T10:22:30;7.50;99.90
1948;DHT22;974;52.400;9.818;2023-03-16T10:25:08;7.60;99.90
1948;DHT22;974;52.400;9.818;2023-03-16T10:27:39;7.70;99.90
1948;DHT22;974;52.400;9.818;2023-03-16T10:32:45;7.90;99.90
1948;DHT22;974;52.400;9.818;2023-03-16T10:40:55;8.20;99.90
1948;DHT22;974;52.400;9.818;2023-03-16T10:43:22;8.30;99.90
1948;DHT22;974;52.400;9.818;2023-03-16T10:45:48;8.50;99.90
1948;DHT22;974;52.400;9.818;2023-03-16T10:48:19;8.60;99.90
1948;DHT22;974;52.400;9.818;2023-03-16T10:50:51;8.70;99.90
1948;DHT22;974;52.400;9.818;2023-03-16T10:53:27;8.80;99.90
1948;DHT22;974;52.400;9.818;2023-03-16T10:55:58;8.80;99.30
1948;DHT22;974;52.400;9.818;2023-03-16T10:58:27;8.90;99.40
1948;DHT22;974;52.400;9.818;2023-03-16T11:00:54;9.00;99.10
1948;DHT22;974;52.400;9.818;2023-03-16T11:03:27;9.10;99.70
1948;DHT22;974;52.400;9.818;2023-03-16T11:06:18;9.20;99.00
1948;DHT22;974;52.400;9.818;2023-03-16T11:08:44;9.20;99.20
1948;DHT22;974;52.400;9.818;2023-03-16T11:11:38;9.30;98.70
1948;DHT22;974;52.400;9.818;2023-03-16T11:14:11;9.40;98.10
1948;DHT22;974;52.400;9.818;2023-03-16T11:16:49;9.40;98.70
1948;DHT22;974;52.400;9.818;2023-03-16T11:19:38;9.40;97.90
1948;DHT22;974;52.400;9.818;2023-03-16T11:30:46;9.80;96.20
1948;DHT22;974;52.400;9.818;2023-03-16T11:33:16;9.90;95.90
1948;DHT22;974;52.400;9.818;2023-03-16T11:41:43;10.70;95.00
1948;DHT22;974;52.400;9.818;2023-03-16T11:47:04;11.00;94.50
1948;DHT22;974;52.400;9.818;2023-03-16T11:49:39;11.20;94.00
1948;DHT22;974;52.400;9.818;2023-03-16T11:52:21;11.20;93.30
1948;DHT22;974;52.400;9.818;2023-03-16T11:55:02;11.30;92.70
1948;DHT22;974;52.400;9.818;2023-03-16T12:00:34;11.50;92.00
1948;DHT22;974;52.400;9.818;2023-03-16T12:03:07;11.80;91.80
1948;DHT22;974;52.400;9.818;2023-03-16T12:05:55;12.00;91.20
1948;DHT22;974;52.400;9.818;2023-03-16T12:11:11;12.00;90.10
1948;DHT22;974;52.400;9.818;2023-03-16T12:16:32;12.00;89.30
1948;DHT22;974;52.400;9.818;2023-03-16T12:19:02;12.40;91.10
1948;DHT22;974;52.400;9.818;2023-03-16T12:21:39;15.90;94.20
1948;DHT22;974;52.400;9.818;2023-03-16T12:24:18;22.30;92.80
1948;DHT22;974;52.400;9.818;2023-03-16T12:26:45;26.70;70.30
1948;DHT22;974;52.400;9.818;2023-03-16T12:29:31;27.80;54.00
1948;DHT22;974;52.400;9.818;2023-03-16T12:32:13;29.80;44.20
1948;DHT22;974;52.400;9.818;2023-03-16T12:34:50;31.60;37.10
1948;DHT22;974;52.400;9.818;2023-03-16T12:37:23;29.70;32.60
1948;DHT22;974;52.400;9.818;2023-03-16T12:48:39;25.50;31.60
1948;DHT22;974;52.400;9.818;2023-03-16T12:51:06;26.90;33.40
1948;DHT22;974;52.400;9.818;2023-03-16T12:54:04;25.60;29.10
1948;DHT22;974;52.400;9.818;2023-03-16T12:56:33;22.20;30.20
1948;DHT22;974;52.400;9.818;2023-03-16T12:59:02;20.90;31.60
1948;DHT22;974;52.400;9.818;2023-03-16T13:01:37;19.40;32.30
1948;DHT22;974;52.400;9.818;2023-03-16T13:04:10;17.90;33.70
1948;DHT22;974;52.400;9.818;2023-03-16T13:06:45;16.90;36.00
1948;DHT22;974;52.400;9.818;2023-03-16T13:09:19;16.10;36.80
1948;DHT22;974;52.400;9.818;2023-03-16T13:11:47;15.30;38.40
1948;DHT22;974;52.400;9.818;2023-03-16T13:17:06;14.10;40.60
1948;DHT22;974;52.400;9.818;2023-03-16T13:20:24;13.90;41.60
1948;DHT22;974;52.400;9.818;2023-03-16T13:28:00;13.10;43.90
1948;DHT22;974;52.400;9.818;2023-03-16T13:30:31;12.80;44.90
1948;DHT22;974;52.400;9.818;2023-03-16T13:33:17;12.80;45.50
1948;DHT22;974;52.400;9.818;2023-03-16T13:35:45;13.40;46.10
1948;DHT22;974;52.400;9.818;2023-03-16T13:38:13;13.90;45.40
1948;DHT22;974;52.400;9.818;2023-03-16T13:40:49;14.30;45.60
1948;DHT22;974;52.400;9.818;2023-03-16T13:43:17;14.80;44.00
1948;DHT22;974;52.400;9.818;2023-03-16T13:45:43;14.80;42.80
1948;DHT22;974;52.400;9.818;2023-03-16T13:48:12;14.80;43.00
1948;DHT22;974;52.400;9.818;2023-03-16T13:50:39;14.80;42.10
1948;DHT22;974;52.400;9.818;2023-03-16T13:53:15;14.70;41.80
1948;DHT22;974;52.400;9.818;2023-03-16T13:55:44;14.50;41.60
1948;DHT22;974;52.400;9.818;2023-03-16T13:58:22;14.40;41.60
1948;DHT22;974;52.400;9.818;2023-03-16T14:00:48;14.40;42.00
1948;DHT22;974;52.400;9.818;2023-03-16T14:03:18;14.10;41.20
1948;DHT22;974;52.400;9.818;2023-03-16T14:05:46;13.80;41.10
1948;DHT22;974;52.400;9.818;2023-03-16T14:08:23;13.50;41.30
1948;DHT22;974;52.400;9.818;2023-03-16T14:10:49;13.50;41.90
1948;DHT22;974;52.400;9.818;2023-03-16T14:16:13;13.10;42.00
1948;DHT22;974;52.400;9.818;2023-03-16T14:18:42;12.90;42.50
1948;DHT22;974;52.400;9.818;2023-03-16T14:21:12;12.60;42.40
1948;DHT22;974;52.400;9.818;2023-03-16T14:23:47;12.50;42.80
1948;DHT22;974;52.400;9.818;2023-03-16T14:26:17;12.40;43.60
1948;DHT22;974;52.400;9.818;2023-03-16T14:29:03;12.10;44.60
1948;DHT22;974;52.400;9.818;2023-03-16T14:31:38;12.00;45.20
1948;DHT22;974;52.400;9.818;2023-03-16T14:34:18;11.70;46.10
1948;DHT22;974;52.400;9.818;2023-03-16T14:36:45;11.50;47.20
1948;DHT22;974;52.400;9.818;2023-03-16T14:39:18;11.30;48.70
1948;DHT22;974;52.400;9.818;2023-03-16T14:41:48;11.10;48.80
1948;DHT22;974;52.400;9.818;2023-03-16T14:44:28;11.00;49.20
1948;DHT22;974;52.400;9.818;2023-03-16T14:46:56;10.90;49.60
1948;DHT22;974;52.400;9.818;2023-03-16T14:49:29;10.60;49.80
1948;DHT22;974;52.400;9.818;2023-03-16T14:54:38;10.40;49.60
1948;DHT22;974;52.400;9.818;2023-03-16T14:57:04;10.30;50.20
1948;DHT22;974;52.400;9.818;2023-03-16T14:59:31;10.20;50.00
1948;DHT22;974;52.400;9.818;2023-03-16T15:01:58;10.20;50.50
1948;DHT22;974;52.400;9.818;2023-03-16T15:04:30;10.20;50.70
1948;DHT22;974;52.400;9.818;2023-03-16T15:06:57;10.30;51.20
1948;DHT22;974;52.400;9.818;2023-03-16T15:11:52;10.10;51.50
1948;DHT22;974;52.400;9.818;2023-03-16T15:14:19;10.10;51.60
1948;DHT22;974;52.400;9.818;2023-03-16T15:17:05;10.00;51.90
1948;DHT22;974;52.400;9.818;2023-03-16T15:19:31;10.00;52.60
1948;DHT22;974;52.400;9.818;2023-03-16T15:21:59;10.00;52.70
1948;DHT22;974;52.400;9.818;2023-03-16T15:24:26;9.90;53.60
1948;DHT22;974;52.400;9.818;2023-03-16T15:26:53;9.90;53.40
1948;DHT22;974;52.400;9.818;2023-03-16T15:29:19;9.80;53.60
1948;DHT22;974;52.400;9.818;2023-03-16T15:31:45;9.80;53.60
1948;DHT22;974;52.400;9.818;2023-03-16T15:34:11;9.80;53.90
1948;DHT22;974;52.400;9.818;2023-03-16T15:36:37;9.70;53.30
1948;DHT22;974;52.400;9.818;2023-03-16T15:39:02;9.70;53.50
1948;DHT22;974;52.400;9.818;2023-03-16T15:41:28;9.70;53.80
1948;DHT22;974;52.400;9.818;2023-03-16T15:43:54;9.70;53.80
1948;DHT22;974;52.400;9.818;2023-03-16T15:46:25;9.60;53.90
1948;DHT22;974;52.400;9.818;2023-03-16T15:48:51;9.70;53.80
1948;DHT22;974;52.400;9.818;2023-03-16T15:51:24;9.60;54.30
1948;DHT22;974;52.400;9.818;2023-03-16T15:53:54;9.50;54.40
1948;DHT22;974;52.400;9.818;2023-03-16T15:56:24;9.60;54.80
1948;DHT22;974;52.400;9.818;2023-03-16T15:58:54;9.50;54.80
1948;DHT22;974;52.400;9.818;2023-03-16T16:01:23;9.40;55.00
1948;DHT22;974;52.400;9.818;2023-03-16T16:03:50;9.40;55.60
1948;DHT22;974;52.400;9.818;2023-03-16T16:06:16;9.30;55.80
1948;DHT22;974;52.400;9.818;2023-03-16T16:08:41;9.30;56.20
1948;DHT22;974;52.400;9.818;2023-03-16T16:11:15;9.30;56.20
1948;DHT22;974;52.400;9.818;2023-03-16T16:13:42;9.30;56.40
1948;DHT22;974;52.400;9.818;2023-03-16T16:16:13;9.30;56.50
1948;DHT22;974;52.400;9.818;2023-03-16T16:18:40;9.20;57.00
1948;DHT22;974;52.400;9.818;2023-03-16T16:21:08;9.20;57.50
1948;DHT22;974;52.400;9.818;2023-03-16T16:23:38;9.20;57.80
1948;DHT22;974;52.400;9.818;2023-03-16T16:26:08;9.20;58.30
1948;DHT22;974;52.400;9.818;2023-03-16T16:28:36;9.10;58.70
1948;DHT22;974;52.400;9.818;2023-03-16T16:31:02;9.10;59.00
1948;DHT22;974;52.400;9.818;2023-03-16T16:33:33;9.10;59.20
1948;DHT22;974;52.400;9.818;2023-03-16T16:36:01;9.00;59.30
1948;DHT22;974;52.400;9.818;2023-03-16T16:38:27;9.00;59.20
1948;DHT22;974;52.400;9.818;2023-03-16T16:40:54;8.90;59.20
1948;DHT22;974;52.400;9.818;2023-03-16T16:46:00;8.90;59.60
1948;DHT22;974;52.400;9.818;2023-03-16T16:48:38;8.80;60.00
1948;DHT22;974;52.400;9.818;2023-03-16T16:51:05;8.80;60.20
1948;DHT22;974;52.400;9.818;2023-03-16T16:53:34;8.80;60.20
1948;DHT22;974;52.400;9.818;2023-03-16T16:55:59;8.70;60.20
1948;DHT22;974;52.400;9.818;2023-03-16T16:58:26;8.70;60.30
1948;DHT22;974;52.400;9.818;2023-03-16T17:00:56;8.70;60.40
1948;DHT22;974;52.400;9.818;2023-03-16T17:03:27;8.70;60.60
1948;DHT22;974;52.400;9.818;2023-03-16T17:05:55;8.60;60.30
1948;DHT22;974;52.400;9.818;2023-03-16T17:08:21;8.60;60.40
1948;DHT22;974;52.400;9.818;2023-03-16T17:10:47;8.50;60.80
1948;DHT22;974;52.400;9.818;2023-03-16T17:13:22;8.50;60.60
1948;DHT22;974;52.400;9.818;2023-03-16T17:15:49;8.50;60.80
1948;DHT22;974;52.400;9.818;2023-03-16T17:18:15;8.40;60.90
1948;DHT22;974;52.400;9.818;2023-03-16T17:20:41;8.40;61.00
1948;DHT22;974;52.400;9.818;2023-03-16T17:23:33;8.40;61.40
1948;DHT22;974;52.400;9.818;2023-03-16T17:26:13;8.30;61.30
1948;DHT22;974;52.400;9.818;2023-03-16T17:28:43;8.30;62.00
1948;DHT22;974;52.400;9.818;2023-03-16T17:31:11;8.20;61.30
1948;DHT22;974;52.400;9.818;2023-03-16T17:33:37;8.20;61.60
1948;DHT22;974;52.400;9.818;2023-03-16T17:36:02;8.20;62.00
1948;DHT22;974;52.400;9.818;2023-03-16T17:38:29;8.10;62.10
1948;DHT22;974;52.400;9.818;2023-03-16T17:40:55;8.10;62.80
1948;DHT22;974;52.400;9.818;2023-03-16T17:43:22;8.10;62.80
1948;DHT22;974;52.400;9.818;2023-03-16T17:45:49;8.00;62.70
1948;DHT22;974;52.400;9.818;2023-03-16T17:48:21;8.00;63.10
1948;DHT22;974;52.400;9.818;2023-03-16T17:50:48;8.00;63.20
1948;DHT22;974;52.400;9.818;2023-03-16T17:53:16;7.90;63.00